sensor_id;sensor_type;location;lat;lon;timestamp;P1;durP1;ratioP1;P2;durP2;ratioP2
10461;SDS011;5278;42.656;23.374;2024-02-23T00:01:23;18.70;;;11.77;;
10461;SDS011;5278;42.656;23.374;2024-02-23T00:03:50;16.27;;;11.43;;
10461;SDS011;5278;42.656;23.374;2024-02-23T00:06:17;18.30;;;11.97;;
10461;SDS011;5278;42.656;23.374;2024-02-23T00:08:45;14.53;;;10.73;;
10461;SDS011;5278;42.656;23.374;2024-02-23T00:11:12;16.23;;;10.73;;
10461;SDS011;5278;42.656;23.374;2024-02-23T00:13:38;16.27;;;12.10;;
10461;SDS011;5278;42.656;23.374;2024-02-23T00:16:05;16.27;;;11.80;;
10461;SDS011;5278;42.656;23.374;2024-02-23T00:18:32;19.03;;;11.23;;
10461;SDS011;5278;42.656;23.374;2024-02-23T00:20:59;16.83;;;12.20;;
10461;SDS011;5278;42.656;23.374;2024-02-23T00:23:25;16.07;;;10.83;;
10461;SDS011;5278;42.656;23.374;2024-02-23T00:25:55;15.73;;;10.50;;
10461;SDS011;5278;42.656;23.374;2024-02-23T00:28:22;14.50;;;10.73;;
10461;SDS011;5278;42.656;23.374;2024-02-23T00:30:48;15.10;;;11.00;;
10461;SDS011;5278;42.656;23.374;2024-02-23T00:33:15;13.67;;;9.70;;
10461;SDS011;5278;42.656;23.374;2024-02-23T00:35:42;15.30;;;9.93;;
10461;SDS011;5278;42.656;23.374;2024-02-23T00:38:09;14.30;;;10.37;;
10461;SDS011;5278;42.656;23.374;2024-02-23T00:40:36;15.37;;;10.87;;
10461;SDS011;5278;42.656;23.374;2024-02-23T00:43:04;13.80;;;10.63;;
10461;SDS011;5278;42.656;23.374;2024-02-23T00:45:31;12.90;;;9.97;;
10461;SDS011;5278;42.656;23.374;2024-02-23T00:47:58;14.17;;;10.30;;
10461;SDS011;5278;42.656;23.374;2024-02-23T00:50:25;11.93;;;8.80;;
10461;SDS011;5278;42.656;23.374;2024-02-23T00:52:52;14.43;;;8.87;;
10461;SDS011;5278;42.656;23.374;2024-02-23T00:55:19;13.30;;;9.57;;
10461;SDS011;5278;42.656;23.374;2024-02-23T00:57:46;12.47;;;8.97;;
10461;SDS011;5278;42.656;23.374;2024-02-23T01:00:14;12.90;;;9.47;;
10461;SDS011;5278;42.656;23.374;2024-02-23T01:02:41;14.13;;;9.77;;
10461;SDS011;5278;42.656;23.374;2024-02-23T01:05:08;14.57;;;9.83;;
10461;SDS011;5278;42.656;23.374;2024-02-23T01:07:35;15.23;;;10.27;;
10461;SDS011;5278;42.656;23.374;2024-02-23T01:10:02;11.70;;;9.47;;
10461;SDS011;5278;42.656;23.374;2024-02-23T01:12:29;13.03;;;10.00;;
10461;SDS011;5278;42.656;23.374;2024-02-23T01:14:56;13.07;;;10.13;;
10461;SDS011;5278;42.656;23.374;2024-02-23T01:17:24;10.93;;;9.13;;
10461;SDS011;5278;42.656;23.374;2024-02-23T01:19:51;11.80;;;10.07;;
10461;SDS011;5278;42.656;23.374;2024-02-23T01:22:18;13.73;;;9.53;;
10461;SDS011;5278;42.656;23.374;2024-02-23T01:24:44;11.03;;;8.47;;
10461;SDS011;5278;42.656;23.374;2024-02-23T01:27:11;13.83;;;9.07;;
10461;SDS011;5278;42.656;23.374;2024-02-23T01:29:38;12.53;;;8.73;;
10461;SDS011;5278;42.656;23.374;2024-02-23T01:32:05;14.87;;;8.77;;
10461;SDS011;5278;42.656;23.374;2024-02-23T01:34:33;15.50;;;9.27;;
10461;SDS011;5278;42.656;23.374;2024-02-23T01:37:00;14.30;;;8.67;;
10461;SDS011;5278;42.656;23.374;2024-02-23T01:39:27;14.90;;;9.00;;
10461;SDS011;5278;42.656;23.374;2024-02-23T01:41:54;10.30;;;8.47;;
10461;SDS011;5278;42.656;23.374;2024-02-23T01:44:21;11.17;;;8.43;;
10461;SDS011;5278;42.656;23.374;2024-02-23T01:46:48;10.77;;;8.53;;
10461;SDS011;5278;42.656;23.374;2024-02-23T01:49:15;12.70;;;9.10;;
10461;SDS011;5278;42.656;23.374;2024-02-23T01:51:44;11.03;;;8.17;;
10461;SDS011;5278;42.656;23.374;2024-02-23T01:54:11;13.30;;;9.00;;
10461;SDS011;5278;42.656;23.374;2024-02-23T01:56:38;11.10;;;8.23;;
10461;SDS011;5278;42.656;23.374;2024-02-23T01:59:05;10.97;;;8.43;;
10461;SDS011;5278;42.656;23.374;2024-02-23T02:01:32;10.13;;;8.07;;
10461;SDS011;5278;42.656;23.374;2024-02-23T02:03:59;10.43;;;8.43;;
10461;SDS011;5278;42.656;23.374;2024-02-23T02:06:28;10.73;;;8.37;;
10461;SDS011;5278;42.656;23.374;2024-02-23T02:08:56;11.23;;;8.13;;
10461;SDS011;5278;42.656;23.374;2024-02-23T02:11:23;10.57;;;8.90;;
10461;SDS011;5278;42.656;23.374;2024-02-23T02:13:49;11.40;;;7.83;;
10461;SDS011;5278;42.656;23.374;2024-02-23T02:16:16;13.87;;;8.63;;
10461;SDS011;5278;42.656;23.374;2024-02-23T02:18:43;10.20;;;8.33;;
10461;SDS011;5278;42.656;23.374;2024-02-23T02:21:11;12.33;;;8.00;;
10461;SDS011;5278;42.656;23.374;2024-02-23T02:23:38;13.43;;;8.70;;
10461;SDS011;5278;42.656;23.374;2024-02-23T02:26:06;13.47;;;8.70;;
10461;SDS011;5278;42.656;23.374;2024-02-23T02:28:33;12.17;;;9.53;;
10461;SDS011;5278;42.656;23.374;2024-02-23T02:31:00;15.40;;;8.33;;
10461;SDS011;5278;42.656;23.374;2024-02-23T02:33:27;10.97;;;8.30;;
10461;SDS011;5278;42.656;23.374;2024-02-23T02:35:53;11.00;;;8.43;;
10461;SDS011;5278;42.656;23.374;2024-02-23T02:38:20;11.20;;;7.70;;
10461;SDS011;5278;42.656;23.374;2024-02-23T02:40:47;11.23;;;8.47;;
10461;SDS011;5278;42.656;23.374;2024-02-23T02:43:15;12.93;;;9.13;;
10461;SDS011;5278;42.656;23.374;2024-02-23T02:45:41;11.60;;;8.83;;
10461;SDS011;5278;42.656;23.374;2024-02-23T02:48:09;11.50;;;7.73;;
10461;SDS011;5278;42.656;23.374;2024-02-23T02:50:35;13.67;;;9.47;;
10461;SDS011;5278;42.656;23.374;2024-02-23T02:53:02;12.53;;;8.23;;
10461;SDS011;5278;42.656;23.374;2024-02-23T02:55:29;11.10;;;8.40;;
10461;SDS011;5278;42.656;23.374;2024-02-23T02:57:56;11.87;;;8.60;;
10461;SDS011;5278;42.656;23.374;2024-02-23T03:00:24;14.37;;;9.47;;
10461;SDS011;5278;42.656;23.374;2024-02-23T03:02:50;12.40;;;8.27;;
10461;SDS011;5278;42.656;23.374;2024-02-23T03:05:17;9.57;;;7.60;;
10461;SDS011;5278;42.656;23.374;2024-02-23T03:07:44;11.47;;;7.97;;
10461;SDS011;5278;42.656;23.374;2024-02-23T03:10:11;10.50;;;8.27;;
10461;SDS011;5278;42.656;23.374;2024-02-23T03:12:37;14.83;;;8.53;;
10461;SDS011;5278;42.656;23.374;2024-02-23T03:15:05;11.13;;;8.13;;
10461;SDS011;5278;42.656;23.374;2024-02-23T03:17:33;13.90;;;9.07;;
10461;SDS011;5278;42.656;23.374;2024-02-23T03:20:00;13.07;;;8.80;;
10461;SDS011;5278;42.656;23.374;2024-02-23T03:22:27;11.90;;;8.47;;
10461;SDS011;5278;42.656;23.374;2024-02-23T03:24:54;11.70;;;9.13;;
10461;SDS011;5278;42.656;23.374;2024-02-23T03:27:21;12.60;;;8.47;;
10461;SDS011;5278;42.656;23.374;2024-02-23T03:29:54;12.00;;;8.43;;
10461;SDS011;5278;42.656;23.374;2024-02-23T03:32:21;13.20;;;9.37;;
10461;SDS011;5278;42.656;23.374;2024-02-23T03:34:49;10.70;;;7.87;;
10461;SDS011;5278;42.656;23.374;2024-02-23T03:37:16;11.57;;;8.43;;
10461;SDS011;5278;42.656;23.374;2024-02-23T03:39:42;15.03;;;8.77;;
10461;SDS011;5278;42.656;23.374;2024-02-23T03:42:09;11.60;;;8.83;;
10461;SDS011;5278;42.656;23.374;2024-02-23T03:44:36;11.03;;;8.60;;
10461;SDS011;5278;42.656;23.374;2024-02-23T03:47:08;11.40;;;8.17;;
10461;SDS011;5278;42.656;23.374;2024-02-23T03:49:35;10.57;;;8.30;;
10461;SDS011;5278;42.656;23.374;2024-02-23T03:52:03;11.57;;;8.80;;
10461;SDS011;5278;42.656;23.374;2024-02-23T03:54:30;9.60;;;7.13;;
10461;SDS011;5278;42.656;23.374;2024-02-23T03:56:57;14.03;;;9.23;;
10461;SDS011;5278;42.656;23.374;2024-02-23T03:59:24;11.97;;;8.77;;
10461;SDS011;5278;42.656;23.374;2024-02-23T04:01:51;10.90;;;7.90;;
10461;SDS011;5278;42.656;23.374;2024-02-23T04:04:17;12.03;;;8.30;;
10461;SDS011;5278;42.656;23.374;2024-02-23T04:06:44;13.80;;;8.60;;
10461;SDS011;5278;42.656;23.374;2024-02-23T04:09:12;9.33;;;8.03;;
10461;SDS011;5278;42.656;23.374;2024-02-23T04:11:39;11.07;;;8.40;;
10461;SDS011;5278;42.656;23.374;2024-02-23T04:14:05;10.23;;;7.50;;
10461;SDS011;5278;42.656;23.374;2024-02-23T04:16:32;10.80;;;8.50;;
10461;SDS011;5278;42.656;23.374;2024-02-23T04:18:59;8.60;;;7.70;;
10461;SDS011;5278;42.656;23.374;2024-02-23T04:21:25;11.60;;;7.87;;
10461;SDS011;5278;42.656;23.374;2024-02-23T04:23:52;10.40;;;8.33;;
10461;SDS011;5278;42.656;23.374;2024-02-23T04:26:20;10.43;;;7.77;;
10461;SDS011;5278;42.656;23.374;2024-02-23T04:28:47;10.53;;;8.67;;
10461;SDS011;5278;42.656;23.374;2024-02-23T04:31:14;11.90;;;8.73;;
10461;SDS011;5278;42.656;23.374;2024-02-23T04:33:40;11.77;;;8.53;;
10461;SDS011;5278;42.656;23.374;2024-02-23T04:36:07;12.30;;;8.33;;
10461;SDS011;5278;42.656;23.374;2024-02-23T04:38:34;10.10;;;8.20;;
10461;SDS011;5278;42.656;23.374;2024-02-23T04:41:02;14.23;;;8.53;;
10461;SDS011;5278;42.656;23.374;2024-02-23T04:43:31;13.77;;;9.30;;
10461;SDS011;5278;42.656;23.374;2024-02-23T04:45:57;12.73;;;9.20;;
10461;SDS011;5278;42.656;23.374;2024-02-23T04:48:24;13.07;;;9.03;;
10461;SDS011;5278;42.656;23.374;2024-02-23T04:50:51;11.10;;;8.77;;
10461;SDS011;5278;42.656;23.374;2024-02-23T04:53:18;11.23;;;8.37;;
10461;SDS011;5278;42.656;23.374;2024-02-23T04:55:44;12.67;;;8.20;;
10461;SDS011;5278;42.656;23.374;2024-02-23T04:58:11;13.17;;;9.40;;
10461;SDS011;5278;42.656;23.374;2024-02-23T05:00:39;10.53;;;8.20;;
10461;SDS011;5278;42.656;23.374;2024-02-23T05:03:06;12.00;;;8.97;;
10461;SDS011;5278;42.656;23.374;2024-02-23T05:05:32;13.67;;;9.70;;
10461;SDS011;5278;42.656;23.374;2024-02-23T05:07:59;12.13;;;8.90;;
10461;SDS011;5278;42.656;23.374;2024-02-23T05:10:26;11.90;;;8.53;;
10461;SDS011;5278;42.656;23.374;2024-02-23T05:12:53;10.00;;;7.40;;
10461;SDS011;5278;42.656;23.374;2024-02-23T05:15:20;11.97;;;7.93;;
10461;SDS011;5278;42.656;23.374;2024-02-23T05:17:48;12.63;;;7.77;;
10461;SDS011;5278;42.656;23.374;2024-02-23T05:20:15;12.70;;;8.37;;
10461;SDS011;5278;42.656;23.374;2024-02-23T05:22:41;12.63;;;9.27;;
10461;SDS011;5278;42.656;23.374;2024-02-23T05:25:08;13.90;;;8.97;;
10461;SDS011;5278;42.656;23.374;2024-02-23T05:27:35;15.17;;;7.93;;
10461;SDS011;5278;42.656;23.374;2024-02-23T05:30:02;14.20;;;9.50;;
10461;SDS011;5278;42.656;23.374;2024-02-23T05:32:29;9.63;;;8.37;;
10461;SDS011;5278;42.656;23.374;2024-02-23T05:34:57;12.60;;;8.93;;
10461;SDS011;5278;42.656;23.374;2024-02-23T05:37:24;11.80;;;9.23;;
10461;SDS011;5278;42.656;23.374;2024-02-23T05:39:52;12.33;;;9.07;;
10461;SDS011;5278;42.656;23.374;2024-02-23T05:42:19;14.10;;;9.57;;
10461;SDS011;5278;42.656;23.374;2024-02-23T05:44:46;13.57;;;9.10;;
10461;SDS011;5278;42.656;23.374;2024-02-23T05:47:13;19.67;;;10.10;;
10461;SDS011;5278;42.656;23.374;2024-02-23T05:49:40;12.17;;;9.60;;
10461;SDS011;5278;42.656;23.374;2024-02-23T05:52:08;11.30;;;9.03;;
10461;SDS011;5278;42.656;23.374;2024-02-23T05:54:35;14.13;;;10.07;;
10461;SDS011;5278;42.656;23.374;2024-02-23T05:57:02;12.20;;;9.63;;
10461;SDS011;5278;42.656;23.374;2024-02-23T05:59:29;14.57;;;10.13;;
10461;SDS011;5278;42.656;23.374;2024-02-23T06:01:57;16.53;;;10.50;;
10461;SDS011;5278;42.656;23.374;2024-02-23T06:04:23;14.60;;;11.90;;
10461;SDS011;5278;42.656;23.374;2024-02-23T06:06:50;20.87;;;13.77;;
10461;SDS011;5278;42.656;23.374;2024-02-23T06:09:19;21.13;;;12.17;;
10461;SDS011;5278;42.656;23.374;2024-02-23T06:11:45;14.77;;;10.80;;
10461;SDS011;5278;42.656;23.374;2024-02-23T06:14:12;13.97;;;9.93;;
10461;SDS011;5278;42.656;23.374;2024-02-23T06:16:39;14.00;;;10.07;;
10461;SDS011;5278;42.656;23.374;2024-02-23T06:19:06;15.10;;;12.00;;
10461;SDS011;5278;42.656;23.374;2024-02-23T06:21:33;23.43;;;11.70;;
10461;SDS011;5278;42.656;23.374;2024-02-23T06:23:59;13.40;;;10.57;;
10461;SDS011;5278;42.656;23.374;2024-02-23T06:26:29;15.77;;;12.00;;
10461;SDS011;5278;42.656;23.374;2024-02-23T06:28:55;15.33;;;12.27;;
10461;SDS011;5278;42.656;23.374;2024-02-23T06:31:22;13.10;;;10.53;;
10461;SDS011;5278;42.656;23.374;2024-02-23T06:33:49;16.77;;;10.83;;
10461;SDS011;5278;42.656;23.374;2024-02-23T06:36:16;22.77;;;14.93;;
10461;SDS011;5278;42.656;23.374;2024-02-23T06:38:43;16.90;;;12.33;;
10461;SDS011;5278;42.656;23.374;2024-02-23T06:41:11;24.47;;;13.90;;
10461;SDS011;5278;42.656;23.374;2024-02-23T06:43:39;21.33;;;12.57;;
10461;SDS011;5278;42.656;23.374;2024-02-23T06:46:06;15.20;;;11.50;;
10461;SDS011;5278;42.656;23.374;2024-02-23T06:48:33;15.07;;;12.63;;
10461;SDS011;5278;42.656;23.374;2024-02-23T06:51:00;22.70;;;14.03;;
10461;SDS011;5278;42.656;23.374;2024-02-23T06:53:27;18.57;;;12.37;;
10461;SDS011;5278;42.656;23.374;2024-02-23T06:55:54;19.47;;;11.33;;
10461;SDS011;5278;42.656;23.374;2024-02-23T06:58:21;12.60;;;10.23;;
10461;SDS011;5278;42.656;23.374;2024-02-23T07:00:49;23.20;;;14.43;;
10461;SDS011;5278;42.656;23.374;2024-02-23T07:03:15;20.63;;;12.43;;
10461;SDS011;5278;42.656;23.374;2024-02-23T07:05:43;17.37;;;11.57;;
10461;SDS011;5278;42.656;23.374;2024-02-23T07:08:10;12.13;;;10.80;;
10461;SDS011;5278;42.656;23.374;2024-02-23T07:10:37;14.57;;;12.37;;
10461;SDS011;5278;42.656;23.374;2024-02-23T07:13:04;15.53;;;11.83;;
10461;SDS011;5278;42.656;23.374;2024-02-23T07:15:32;16.40;;;11.77;;
10461;SDS011;5278;42.656;23.374;2024-02-23T07:18:00;14.47;;;11.60;;
10461;SDS011;5278;42.656;23.374;2024-02-23T07:20:26;18.27;;;11.77;;
10461;SDS011;5278;42.656;23.374;2024-02-23T07:22:53;18.13;;;12.97;;
10461;SDS011;5278;42.656;23.374;2024-02-23T07:25:20;15.40;;;12.70;;
10461;SDS011;5278;42.656;23.374;2024-02-23T07:27:47;18.60;;;13.10;;
10461;SDS011;5278;42.656;23.374;2024-02-23T07:30:15;17.53;;;12.77;;
10461;SDS011;5278;42.656;23.374;2024-02-23T07:32:42;20.20;;;13.77;;
10461;SDS011;5278;42.656;23.374;2024-02-23T07:35:11;14.40;;;12.07;;
10461;SDS011;5278;42.656;23.374;2024-02-23T07:37:37;15.37;;;11.93;;
10461;SDS011;5278;42.656;23.374;2024-02-23T07:40:04;16.13;;;11.93;;
10461;SDS011;5278;42.656;23.374;2024-02-23T07:42:33;13.67;;;11.63;;
10461;SDS011;5278;42.656;23.374;2024-02-23T07:45:00;13.20;;;11.73;;
10461;SDS011;5278;42.656;23.374;2024-02-23T07:47:29;13.70;;;10.77;;
10461;SDS011;5278;42.656;23.374;2024-02-23T07:49:56;13.77;;;10.03;;
10461;SDS011;5278;42.656;23.374;2024-02-23T07:52:24;13.90;;;10.63;;
10461;SDS011;5278;42.656;23.374;2024-02-23T07:54:51;11.30;;;10.10;;
10461;SDS011;5278;42.656;23.374;2024-02-23T07:57:18;13.53;;;11.03;;
10461;SDS011;5278;42.656;23.374;2024-02-23T07:59:44;13.73;;;11.53;;
10461;SDS011;5278;42.656;23.374;2024-02-23T08:02:11;16.97;;;12.07;;
10461;SDS011;5278;42.656;23.374;2024-02-23T08:04:38;12.17;;;10.57;;
10461;SDS011;5278;42.656;23.374;2024-02-23T08:07:05;13.47;;;9.73;;
10461;SDS011;5278;42.656;23.374;2024-02-23T08:09:33;11.13;;;9.90;;
10461;SDS011;5278;42.656;23.374;2024-02-23T08:12:00;13.70;;;10.53;;
10461;SDS011;5278;42.656;23.374;2024-02-23T08:14:26;11.03;;;9.77;;
10461;SDS011;5278;42.656;23.374;2024-02-23T08:16:53;11.60;;;9.60;;
10461;SDS011;5278;42.656;23.374;2024-02-23T08:19:20;22.87;;;16.23;;
10461;SDS011;5278;42.656;23.374;2024-02-23T08:21:46;18.43;;;14.13;;
10461;SDS011;5278;42.656;23.374;2024-02-23T08:24:13;16.80;;;11.33;;
10461;SDS011;5278;42.656;23.374;2024-02-23T08:26:41;14.70;;;9.57;;
10461;SDS011;5278;42.656;23.374;2024-02-23T08:29:08;14.80;;;13.23;;
10461;SDS011;5278;42.656;23.374;2024-02-23T08:31:34;16.03;;;12.13;;
10461;SDS011;5278;42.656;23.374;2024-02-23T08:34:01;12.70;;;10.90;;
10461;SDS011;5278;42.656;23.374;2024-02-23T08:36:28;15.30;;;10.70;;
10461;SDS011;5278;42.656;23.374;2024-02-23T08:38:55;13.47;;;11.47;;
10461;SDS011;5278;42.656;23.374;2024-02-23T08:41:22;18.03;;;12.30;;
10461;SDS011;5278;42.656;23.374;2024-02-23T08:43:50;17.13;;;10.40;;
10461;SDS011;5278;42.656;23.374;2024-02-23T08:46:16;13.83;;;10.87;;
10461;SDS011;5278;42.656;23.374;2024-02-23T08:48:45;15.37;;;11.50;;
10461;SDS011;5278;42.656;23.374;2024-02-23T08:51:12;13.93;;;11.53;;
10461;SDS011;5278;42.656;23.374;2024-02-23T08:53:39;13.67;;;10.83;;
10461;SDS011;5278;42.656;23.374;2024-02-23T08:56:06;16.20;;;11.50;;
10461;SDS011;5278;42.656;23.374;2024-02-23T08:58:34;16.10;;;11.50;;
10461;SDS011;5278;42.656;23.374;2024-02-23T09:01:02;12.37;;;10.57;;
10461;SDS011;5278;42.656;23.374;2024-02-23T09:03:30;16.33;;;11.83;;
10461;SDS011;5278;42.656;23.374;2024-02-23T09:05:56;14.17;;;11.13;;
10461;SDS011;5278;42.656;23.374;2024-02-23T09:08:23;14.57;;;9.70;;
10461;SDS011;5278;42.656;23.374;2024-02-23T09:10:50;11.10;;;9.13;;
10461;SDS011;5278;42.656;23.374;2024-02-23T09:13:16;12.80;;;10.67;;
10461;SDS011;5278;42.656;23.374;2024-02-23T09:15:43;10.87;;;9.77;;
10461;SDS011;5278;42.656;23.374;2024-02-23T09:18:11;11.47;;;10.23;;
10461;SDS011;5278;42.656;23.374;2024-02-23T09:20:38;10.80;;;9.77;;
10461;SDS011;5278;42.656;23.374;2024-02-23T09:23:05;10.73;;;8.40;;
10461;SDS011;5278;42.656;23.374;2024-02-23T09:25:31;8.40;;;7.50;;
10461;SDS011;5278;42.656;23.374;2024-02-23T09:27:58;8.37;;;7.10;;
10461;SDS011;5278;42.656;23.374;2024-02-23T09:30:25;8.30;;;6.87;;
10461;SDS011;5278;42.656;23.374;2024-02-23T09:32:52;8.17;;;6.53;;
10461;SDS011;5278;42.656;23.374;2024-02-23T09:35:20;10.03;;;7.33;;
10461;SDS011;5278;42.656;23.374;2024-02-23T09:37:47;9.33;;;7.97;;
10461;SDS011;5278;42.656;23.374;2024-02-23T09:40:14;11.27;;;7.60;;
10461;SDS011;5278;42.656;23.374;2024-02-23T09:42:42;7.53;;;6.83;;
10461;SDS011;5278;42.656;23.374;2024-02-23T09:45:07;8.10;;;6.30;;
10461;SDS011;5278;42.656;23.374;2024-02-23T09:47:37;6.60;;;5.30;;
10461;SDS011;5278;42.656;23.374;2024-02-23T09:50:04;6.17;;;5.43;;
10461;SDS011;5278;42.656;23.374;2024-02-23T09:52:33;9.43;;;6.93;;
10461;SDS011;5278;42.656;23.374;2024-02-23T09:55:00;6.10;;;5.50;;
10461;SDS011;5278;42.656;23.374;2024-02-23T09:57:28;5.53;;;4.90;;
10461;SDS011;5278;42.656;23.374;2024-02-23T09:59:55;6.97;;;4.90;;
10461;SDS011;5278;42.656;23.374;2024-02-23T10:02:22;5.30;;;4.60;;
10461;SDS011;5278;42.656;23.374;2024-02-23T10:04:49;5.37;;;4.53;;
10461;SDS011;5278;42.656;23.374;2024-02-23T10:07:17;5.60;;;4.63;;
10461;SDS011;5278;42.656;23.374;2024-02-23T10:09:45;5.73;;;4.70;;
10461;SDS011;5278;42.656;23.374;2024-02-23T10:12:12;8.67;;;4.70;;
10461;SDS011;5278;42.656;23.374;2024-02-23T10:14:40;6.47;;;4.50;;
10461;SDS011;5278;42.656;23.374;2024-02-23T10:17:07;6.32;;;4.57;;
10461;SDS011;5278;42.656;23.374;2024-02-23T10:19:34;5.25;;;3.90;;
10461;SDS011;5278;42.656;23.374;2024-02-23T10:22:01;7.22;;;4.13;;
10461;SDS011;5278;42.656;23.374;2024-02-23T10:24:27;5.05;;;4.10;;
10461;SDS011;5278;42.656;23.374;2024-02-23T10:26:55;4.75;;;4.07;;
10461;SDS011;5278;42.656;23.374;2024-02-23T10:29:22;4.95;;;4.50;;
10461;SDS011;5278;42.656;23.374;2024-02-23T10:31:49;4.63;;;4.15;;
10461;SDS011;5278;42.656;23.374;2024-02-23T10:34:18;5.65;;;4.00;;
10461;SDS011;5278;42.656;23.374;2024-02-23T10:36:46;14.90;;;10.20;;
10461;SDS011;5278;42.656;23.374;2024-02-23T10:39:16;4.47;;;3.70;;
10461;SDS011;5278;42.656;23.374;2024-02-23T10:41:46;6.57;;;4.60;;
10461;SDS011;5278;42.656;23.374;2024-02-23T10:44:16;4.10;;;3.63;;
10461;SDS011;5278;42.656;23.374;2024-02-23T10:46:44;3.40;;;3.10;;
10461;SDS011;5278;42.656;23.374;2024-02-23T10:49:11;2.83;;;2.63;;
10461;SDS011;5278;42.656;23.374;2024-02-23T10:51:41;6.85;;;3.45;;
10461;SDS011;5278;42.656;23.374;2024-02-23T10:54:19;4.15;;;2.80;;
10461;SDS011;5278;42.656;23.374;2024-02-23T10:56:47;3.50;;;3.15;;
10461;SDS011;5278;42.656;23.374;2024-02-23T10:59:14;4.30;;;3.60;;
10461;SDS011;5278;42.656;23.374;2024-02-23T11:01:44;6.22;;;3.53;;
10461;SDS011;5278;42.656;23.374;2024-02-23T11:04:14;4.05;;;3.17;;
10461;SDS011;5278;42.656;23.374;2024-02-23T11:06:41;4.88;;;3.60;;
10461;SDS011;5278;42.656;23.374;2024-02-23T11:09:12;3.60;;;3.30;;
10461;SDS011;5278;42.656;23.374;2024-02-23T11:11:39;3.35;;;2.80;;
10461;SDS011;5278;42.656;23.374;2024-02-23T11:14:07;8.55;;;4.60;;
10461;SDS011;5278;42.656;23.374;2024-02-23T11:16:38;4.45;;;3.00;;
10461;SDS011;5278;42.656;23.374;2024-02-23T11:19:06;3.72;;;3.35;;
10461;SDS011;5278;42.656;23.374;2024-02-23T11:21:35;3.80;;;3.20;;
10461;SDS011;5278;42.656;23.374;2024-02-23T11:24:02;6.25;;;2.90;;
10461;SDS011;5278;42.656;23.374;2024-02-23T11:26:29;4.40;;;3.50;;
10461;SDS011;5278;42.656;23.374;2024-02-23T11:28:57;4.68;;;3.25;;
10461;SDS011;5278;42.656;23.374;2024-02-23T11:31:24;6.53;;;3.40;;
10461;SDS011;5278;42.656;23.374;2024-02-23T11:33:53;3.10;;;2.80;;
10461;SDS011;5278;42.656;23.374;2024-02-23T11:36:24;4.63;;;3.00;;
10461;SDS011;5278;42.656;23.374;2024-02-23T11:38:53;8.10;;;5.53;;
10461;SDS011;5278;42.656;23.374;2024-02-23T11:41:22;15.73;;;9.90;;
10461;SDS011;5278;42.656;23.374;2024-02-23T11:43:50;6.00;;;4.90;;
10461;SDS011;5278;42.656;23.374;2024-02-23T11:46:17;5.70;;;4.63;;
10461;SDS011;5278;42.656;23.374;2024-02-23T11:48:44;4.57;;;3.50;;
10461;SDS011;5278;42.656;23.374;2024-02-23T11:51:13;4.43;;;3.03;;
10461;SDS011;5278;42.656;23.374;2024-02-23T11:53:40;3.13;;;2.80;;
10461;SDS011;5278;42.656;23.374;2024-02-23T11:56:08;4.53;;;2.80;;
10461;SDS011;5278;42.656;23.374;2024-02-23T11:58:36;3.57;;;2.80;;
10461;SDS011;5278;42.656;23.374;2024-02-23T12:01:03;4.37;;;2.50;;
10461;SDS011;5278;42.656;23.374;2024-02-23T12:03:32;3.90;;;2.57;;
10461;SDS011;5278;42.656;23.374;2024-02-23T12:05:59;2.97;;;2.70;;
10461;SDS011;5278;42.656;23.374;2024-02-23T12:08:28;4.77;;;2.63;;
10461;SDS011;5278;42.656;23.374;2024-02-23T12:11:02;4.57;;;2.70;;
10461;SDS011;5278;42.656;23.374;2024-02-23T12:13:30;4.97;;;3.80;;
10461;SDS011;5278;42.656;23.374;2024-02-23T12:15:57;3.03;;;2.73;;
10461;SDS011;5278;42.656;23.374;2024-02-23T12:18:24;3.83;;;2.80;;
10461;SDS011;5278;42.656;23.374;2024-02-23T12:20:52;3.70;;;3.40;;
10461;SDS011;5278;42.656;23.374;2024-02-23T12:23:18;4.80;;;3.30;;
10461;SDS011;5278;42.656;23.374;2024-02-23T12:25:53;3.17;;;2.53;;
10461;SDS011;5278;42.656;23.374;2024-02-23T12:28:20;3.00;;;2.70;;
10461;SDS011;5278;42.656;23.374;2024-02-23T12:30:57;4.90;;;2.63;;
10461;SDS011;5278;42.656;23.374;2024-02-23T12:33:26;4.10;;;2.83;;
10461;SDS011;5278;42.656;23.374;2024-02-23T12:35:54;4.53;;;2.97;;
10461;SDS011;5278;42.656;23.374;2024-02-23T12:38:21;4.77;;;2.77;;
10461;SDS011;5278;42.656;23.374;2024-02-23T12:40:48;2.50;;;2.30;;
10461;SDS011;5278;42.656;23.374;2024-02-23T12:43:16;4.20;;;2.83;;
10461;SDS011;5278;42.656;23.374;2024-02-23T12:45:46;3.23;;;2.37;;
10461;SDS011;5278;42.656;23.374;2024-02-23T12:48:14;4.90;;;2.70;;
10461;SDS011;5278;42.656;23.374;2024-02-23T12:50:41;2.27;;;2.10;;
10461;SDS011;5278;42.656;23.374;2024-02-23T12:53:08;2.53;;;2.30;;
10461;SDS011;5278;42.656;23.374;2024-02-23T12:55:35;2.87;;;2.37;;
10461;SDS011;5278;42.656;23.374;2024-02-23T12:58:02;2.67;;;2.47;;
10461;SDS011;5278;42.656;23.374;2024-02-23T13:00:30;6.30;;;3.53;;
10461;SDS011;5278;42.656;23.374;2024-02-23T13:02:57;5.03;;;2.80;;
10461;SDS011;5278;42.656;23.374;2024-02-23T13:05:24;4.40;;;2.30;;
10461;SDS011;5278;42.656;23.374;2024-02-23T13:07:50;5.63;;;4.33;;
10461;SDS011;5278;42.656;23.374;2024-02-23T13:10:17;8.00;;;4.83;;
10461;SDS011;5278;42.656;23.374;2024-02-23T13:12:45;4.00;;;2.90;;
10461;SDS011;5278;42.656;23.374;2024-02-23T13:15:12;2.80;;;2.43;;
10461;SDS011;5278;42.656;23.374;2024-02-23T13:17:40;3.80;;;3.20;;
10461;SDS011;5278;42.656;23.374;2024-02-23T13:20:07;3.10;;;2.80;;
10461;SDS011;5278;42.656;23.374;2024-02-23T13:22:37;4.07;;;2.60;;
10461;SDS011;5278;42.656;23.374;2024-02-23T13:25:04;3.27;;;2.60;;
10461;SDS011;5278;42.656;23.374;2024-02-23T13:27:31;4.87;;;3.53;;
10461;SDS011;5278;42.656;23.374;2024-02-23T13:29:58;6.27;;;4.30;;
10461;SDS011;5278;42.656;23.374;2024-02-23T13:32:24;3.77;;;3.00;;
10461;SDS011;5278;42.656;23.374;2024-02-23T13:34:52;3.47;;;2.90;;
10461;SDS011;5278;42.656;23.374;2024-02-23T13:37:19;5.70;;;2.40;;
10461;SDS011;5278;42.656;23.374;2024-02-23T13:39:46;2.87;;;2.43;;
10461;SDS011;5278;42.656;23.374;2024-02-23T13:42:13;6.83;;;3.17;;
10461;SDS011;5278;42.656;23.374;2024-02-23T13:44:40;5.63;;;3.30;;
10461;SDS011;5278;42.656;23.374;2024-02-23T13:47:07;4.80;;;4.30;;
10461;SDS011;5278;42.656;23.374;2024-02-23T13:49:33;6.97;;;4.47;;
10461;SDS011;5278;42.656;23.374;2024-02-23T13:52:01;6.30;;;2.30;;
10461;SDS011;5278;42.656;23.374;2024-02-23T13:54:28;4.37;;;3.23;;
10461;SDS011;5278;42.656;23.374;2024-02-23T13:56:55;6.17;;;2.47;;
10461;SDS011;5278;42.656;23.374;2024-02-23T13:59:22;2.93;;;2.53;;
10461;SDS011;5278;42.656;23.374;2024-02-23T14:01:48;3.23;;;2.20;;
10461;SDS011;5278;42.656;23.374;2024-02-23T14:04:15;5.30;;;2.77;;
10461;SDS011;5278;42.656;23.374;2024-02-23T14:06:42;5.90;;;2.27;;
10461;SDS011;5278;42.656;23.374;2024-02-23T14:09:10;2.83;;;2.60;;
10461;SDS011;5278;42.656;23.374;2024-02-23T14:11:37;5.00;;;2.73;;
10461;SDS011;5278;42.656;23.374;2024-02-23T14:14:05;7.77;;;2.70;;
10461;SDS011;5278;42.656;23.374;2024-02-23T14:16:33;5.27;;;2.63;;
10461;SDS011;5278;42.656;23.374;2024-02-23T14:19:00;3.47;;;2.40;;
10461;SDS011;5278;42.656;23.374;2024-02-23T14:21:26;4.47;;;2.57;;
10461;SDS011;5278;42.656;23.374;2024-02-23T14:23:53;3.87;;;2.57;;
10461;SDS011;5278;42.656;23.374;2024-02-23T14:26:21;4.90;;;2.57;;
10461;SDS011;5278;42.656;23.374;2024-02-23T14:28:48;6.83;;;3.50;;
10461;SDS011;5278;42.656;23.374;2024-02-23T14:31:16;2.93;;;2.47;;
10461;SDS011;5278;42.656;23.374;2024-02-23T14:33:42;5.83;;;2.80;;
10461;SDS011;5278;42.656;23.374;2024-02-23T14:36:09;2.93;;;2.70;;